Time;durP1;ratioP1;P1;durP2;ratioP2;P2;SDS_P1;SDS_P2;PMS_P1;PMS_P2;Temp;Humidity;BMP_temperature;BMP_pressure;BME280_temperature;BME280_humidity;BME280_pressure;Samples;Min_cycle;Max_cycle;Signal;HPM_P1;HPM_P2
2023/10/08 00:01:12;;;;;;;;;;;;;;;;;;5075307;28;19935;-60
2023/10/08 00:03:48;;;;;;;;;;;;;;;;;;5082546;28;19928;-60
2023/10/08 00:06:15;;;;;;;;;;;;;;;;;;5081773;28;20291;-60
2023/10/08 00:08:42;;;;;;;;;;;;;;;;;;5077060;28;19935;-60
2023/10/08 00:11:10;;;;;;;;;;;;;;;;;;5111909;27;19924;-60
2023/10/08 00:13:39;;;;;;;;;;;;;;;;;;5082278;28;20023;-60
2023/10/08 00:16:09;;;;;;;;;;;;;;;;;;5076109;28;20389;-61
2023/10/08 00:18:35;;;;;;;;;;;;;;;;;;5076802;28;20219;-60
2023/10/08 00:21:16;;;;;;;;;;;;;;;;;;5085929;28;20405;-60
2023/10/08 00:23:48;;;;;;;;;;;;;;;;;;5079761;28;20469;-60
2023/10/08 00:26:18;;;;;;;;;;;;;;;;;;5084656;28;19940;-60
2023/10/08 00:28:47;;;;;;;;;;;;;;;;;;5081382;28;19928;-60
2023/10/08 00:31:17;;;;;;;;;;;;;;;;;;5078480;28;19975;-60
2023/10/08 00:33:44;;;;;;;;;;;;;;;;;;5073094;28;19943;-60
2023/10/08 00:36:18;;;;;;;;;;;;;;;;;;5075750;28;19929;-60
2023/10/08 00:38:45;;;;;;;;;;;;;;;;;;5079268;28;19932;-60
2023/10/08 00:41:12;;;;;;;;;;;;;;;;;;5081314;28;19928;-60
2023/10/08 00:43:40;;;;;;;;;;;;;;;;;;5071258;28;19928;-60
2023/10/08 00:46:10;;;;;;;;;;;;;;;;;;5079429;28;19935;-60
2023/10/08 00:48:37;;;;;;;;;;;;;;;;;;5080903;28;20343;-60
2023/10/08 00:51:16;;;;;;;;;;;;;;;;;;5081346;28;19924;-60
2023/10/08 00:53:43;;;;;;;;;;;;;;;;;;5071431;28;19925;-60
2023/10/08 00:56:15;;;;;;;;;;;;;;;;;;5080765;28;19936;-60
2023/10/08 00:58:44;;;;;;;;;;;;;;;;;;5079002;28;19928;-60
2023/10/08 01:01:12;;;;;;;;;;;;;;;;;;5085461;28;19928;-60
2023/10/08 01:03:44;;;;;;;;;;;;;;;;;;5084400;28;19924;-60
2023/10/08 01:06:11;;;;;;;;;;;;;;;;;;5065669;28;20537;-60
2023/10/08 01:08:36;;;;;;;;;;;;;;;;;;5079163;28;20016;-60
2023/10/08 01:11:03;;;;;;;;;;;;;;;;;;5088688;28;20295;-60
2023/10/08 01:13:35;;;;;;;;;;;;;;;;;;5076483;28;19928;-60
2023/10/08 01:16:02;;;;;;;;;;;;;;;;;;5078187;28;19928;-60
2023/10/08 01:18:32;;;;;;;;;;;;;;;;;;5080989;28;20417;-60
2023/10/08 01:21:07;;;;;;;;;;;;;;;;;;5080534;28;19924;-60
2023/10/08 01:23:33;;;;;;;;;;;;;;;;;;5077197;28;20397;-60
2023/10/08 01:26:10;;;;;;;;;;;;;;;;;;5075203;28;19942;-61
2023/10/08 01:28:36;;;;;;;;;;;;;;;;;;5082720;28;19935;-59
2023/10/08 01:31:04;;;;;;;;;;;;;;;;;;5078523;28;20406;-59
2023/10/08 01:33:31;;;;;;;;;;;;;;;;;;5077929;28;19935;-60
2023/10/08 01:36:02;;;;;;;;;;;;;;;;;;5109606;27;19935;-60
2023/10/08 01:38:28;;;;;;;;;;;;;;;;;;5074002;28;19934;-60
2023/10/08 01:40:56;;;;;;;;;;;;;;;;;;5077084;28;19924;-60
2023/10/08 01:43:23;;;;;;;;;;;;;;;;;;5073287;28;20390;-60
2023/10/08 01:45:52;;;;;;;;;;;;;;;;;;5083470;28;19924;-60
2023/10/08 01:48:25;;;;;;;;;;;;;;;;;;5057551;28;19975;-60
2023/10/08 01:50:52;;;;;;;;;;;;;;;;;;5081761;28;19924;-60
2023/10/08 01:53:20;;;;;;;;;;;;;;;;;;5088948;28;20016;-60
2023/10/08 01:55:49;;;;;;;;;;;;;;;;;;5077539;28;20386;-60
2023/10/08 01:58:16;;;;;;;;;;;;;;;;;;5082913;28;19932;-60
2023/10/08 02:00:43;;;;;;;;;;;;;;;;;;5071125;28;19942;-60
2023/10/08 02:03:10;;;;;;;;;;;;;;;;;;5101327;27;19932;-60
2023/10/08 02:05:39;;;;;;;;;;;;;;;;;;5078425;28;20503;-60
2023/10/08 02:08:06;;;;;;;;;;;;;;;;;;5070794;28;19932;-60
2023/10/08 02:10:33;;;;;;;;;;;;;;;;;;5095468;28;19931;-60
2023/10/08 02:12:59;;;;;;;;;;;;;;;;;;5079831;28;19924;-60
2023/10/08 02:15:26;;;;;;;;;;;;;;;;;;5079565;28;20020;-60
2023/10/08 02:17:54;;;;;;;;;;;;;;;;;;5082098;28;19935;-60
2023/10/08 02:20:21;;;;;;;;;;;;;;;;;;5082392;28;19928;-60
2023/10/08 02:22:49;;;;;;;;;;;;;;;;;;5079531;28;19928;-60
2023/10/08 02:25:15;;;;;;;;;;;;;;;;;;5082586;28;19951;-60
2023/10/08 02:27:42;;;;;;;;;;;;;;;;;;5078918;28;20576;-60
2023/10/08 02:30:10;;;;;;;;;;;;;;;;;;5081383;28;19932;-60
2023/10/08 02:32:37;;;;;;;;;;;;;;;;;;5075905;28;20055;-60
2023/10/08 02:35:04;;;;;;;;;;;;;;;;;;5079688;28;20008;-60
2023/10/08 02:37:30;;;;;;;;;;;;;;;;;;5080739;28;19928;-60
2023/10/08 02:39:57;;;;;;;;;;;;;;;;;;5080328;28;19979;-60
2023/10/08 02:42:24;;;;;;;;;;;;;;;;;;5075470;28;19975;-60
2023/10/08 02:44:51;;;;;;;;;;;;;;;;;;5076907;28;19936;-60
2023/10/08 02:47:20;;;;;;;;;;;;;;;;;;5092723;28;19971;-60
2023/10/08 02:49:48;;;;;;;;;;;;;;;;;;5083221;28;19928;-60
2023/10/08 02:52:15;;;;;;;;;;;;;;;;;;5082170;28;19928;-60
2023/10/08 02:54:42;;;;;;;;;;;;;;;;;;5079033;28;20144;-60
2023/10/08 02:57:14;;;;;;;;;;;;;;;;;;5078565;28;19929;-60
2023/10/08 02:59:47;;;;;;;;;;;;;;;;;;5087802;28;20318;-60
2023/10/08 03:02:19;;;;;;;;;;;;;;;;;;5076408;28;20026;-60
2023/10/08 03:04:45;;;;;;;;;;;;;;;;;;5077813;28;19928;-60
2023/10/08 03:07:21;;;;;;;;;;;;;;;;;;5076888;28;19935;-60
2023/10/08 03:09:50;;;;;;;;;;;;;;;;;;5079817;28;19935;-60
2023/10/08 03:12:17;;;;;;;;;;;;;;;;;;5083555;28;19932;-60
2023/10/08 03:14:49;;;;;;;;;;;;;;;;;;5083619;28;19924;-60
2023/10/08 03:17:19;;;;;;;;;;;;;;;;;;5082551;28;20362;-60
2023/10/08 03:19:46;;;;;;;;;;;;;;;;;;5081782;28;19924;-60
2023/10/08 03:22:13;;;;;;;;;;;;;;;;;;5072289;28;20374;-59
2023/10/08 03:24:39;;;;;;;;;;;;;;;;;;5087216;28;19939;-60
2023/10/08 03:27:15;;;;;;;;;;;;;;;;;;5083450;28;19928;-60
2023/10/08 03:29:42;;;;;;;;;;;;;;;;;;5077073;28;20489;-60
2023/10/08 03:32:15;;;;;;;;;;;;;;;;;;5075985;28;19925;-60
2023/10/08 03:34:43;;;;;;;;;;;;;;;;;;5101852;27;20047;-60
2023/10/08 03:37:11;;;;;;;;;;;;;;;;;;5082709;28;19951;-60
2023/10/08 03:39:51;;;;;;;;;;;;;;;;;;5074451;28;19932;-60
2023/10/08 03:42:20;;;;;;;;;;;;;;;;;;5083568;28;19951;-60
2023/10/08 03:44:50;;;;;;;;;;;;;;;;;;5079023;28;19928;-60
2023/10/08 03:47:18;;;;;;;;;;;;;;;;;;5075141;28;19951;-60
2023/10/08 03:49:46;;;;;;;;;;;;;;;;;;5081781;28;19935;-60
2023/10/08 03:52:12;;;;;;;;;;;;;;;;;;5079827;28;19960;-60
2023/10/08 03:54:47;;;;;;;;;;;;;;;;;;5075667;28;19928;-60
2023/10/08 03:57:18;;;;;;;;;;;;;;;;;;5079325;28;19936;-60
2023/10/08 03:59:48;;;;;;;;;;;;;;;;;;5087311;28;19928;-60
2023/10/08 04:02:21;;;;;;;;;;;;;;;;;;5087052;28;20344;-60
2023/10/08 04:04:51;;;;;;;;;;;;;;;;;;5084292;28;19928;-60
2023/10/08 04:07:39;;;;;;;;;;;;;;;;;;5082724;28;19932;-60
2023/10/08 04:10:34;;;;;;;;;;;;;;;;;;5079042;28;19924;-60
2023/10/08 04:12:55;;;;;;;;;;;;;;;;;;5078663;28;19963;-60
2023/10/08 04:15:23;;;;;;;;;;;;;;;;;;5074833;28;19931;-60
2023/10/08 04:17:50;;;;;;;;;;;;;;;;;;5082520;28;19966;-60
2023/10/08 04:23:17;;;;;;;;;;;;;;;;;;5131009;27;19970;-60
2023/10/08 04:25:44;;;;;;;;;;;;;;;;;;5113911;27;19927;-59
2023/10/08 04:28:14;;;;;;;;;;;;;;;;;;5121048;27;19962;-61
2023/10/08 04:30:41;;;;;;;;;;;;;;;;;;5110617;27;19953;-60
2023/10/08 04:33:10;;;;;;;;;;;;;;;;;;5111372;27;20015;-61
2023/10/08 04:35:47;;;;;;;;;;;;;;;;;;5105530;28;20022;-61
2023/10/08 04:38:17;;;;;;;;;;;;;;;;;;5115069;27;19924;-60
2023/10/08 04:40:48;;;;;;;;;;;;;;;;;;5105910;27;19947;-61
2023/10/08 04:43:15;;;;;;;;;;;;;;;;;;5112826;27;20279;-61
2023/10/08 04:45:43;;;;;;;;;;;;;;;;;;5115801;27;20268;-60
2023/10/08 04:48:10;;;;;;;;;;;;;;;;;;5099675;28;19927;-61
2023/10/08 04:50:37;;;;;;;;;;;;;;;;;;5098098;28;19924;-61
2023/10/08 04:53:07;;;;;;;;;;;;;;;;;;5114209;27;19927;-61
2023/10/08 04:55:34;;;;;;;;;;;;;;;;;;5114470;27;20393;-60
2023/10/08 04:58:04;;;;;;;;;;;;;;;;;;5118543;27;19949;-61
2023/10/08 05:00:44;;;;;;;;;;;;;;;;;;5119607;27;19928;-60
2023/10/08 05:03:14;;;;;;;;;;;;;;;;;;5107130;28;20444;-60
2023/10/08 05:05:55;;;;;;;;;;;;;;;;;;5115693;27;20255;-61
2023/10/08 05:08:28;;;;;;;;;;;;;;;;;;5115068;27;19939;-61
2023/10/08 05:11:14;;;;;;;;;;;;;;;;;;5118914;27;20109;-61
2023/10/08 05:13:55;;;;;;;;;;;;;;;;;;5117328;27;20285;-59
2023/10/08 05:16:35;;;;;;;;;;;;;;;;;;5118904;27;20503;-59
2023/10/08 05:19:14;;;;;;;;;;;;;;;;;;5119683;27;19928;-59
2023/10/08 05:21:51;;;;;;;;;;;;;;;;;;5122551;27;19943;-59
2023/10/08 05:24:22;;;;;;;;;;;;;;;;;;5114173;27;19928;-61
2023/10/08 05:26:59;;;;;;;;;;;;;;;;;;5117805;27;19925;-59
2023/10/08 05:29:52;;;;;;;;;;;;;;;;;;5116218;27;19963;-60
2023/10/08 05:32:37;;;;;;;;;;;;;;;;;;5117802;27;19986;-59
2023/10/08 05:37:47;;;;;;;;;;;;;;;;;;5093706;27;20006;-60
2023/10/08 05:40:21;;;;;;;;;;;;;;;;;;5102199;27;19928;-61
2023/10/08 05:42:49;;;;;;;;;;;;;;;;;;5103812;28;20227;-61
2023/10/08 05:45:29;;;;;;;;;;;;;;;;;;5106136;27;19932;-60
2023/10/08 05:48:13;;;;;;;;;;;;;;;;;;5094856;28;19924;-61
2023/10/08 05:50:39;;;;;;;;;;;;;;;;;;5095255;27;19934;-61
2023/10/08 05:53:19;;;;;;;;;;;;;;;;;;5098519;28;20001;-61
2023/10/08 05:55:47;;;;;;;;;;;;;;;;;;5104043;28;20520;-61
2023/10/08 05:58:35;;;;;;;;;;;;;;;;;;5099973;28;19924;-60
2023/10/08 06:01:26;;;;;;;;;;;;;;;;;;5096019;28;19939;-61
2023/10/08 06:04:00;;;;;;;;;;;;;;;;;;5103300;28;19924;-61
2023/10/08 06:06:43;;;;;;;;;;;;;;;;;;5103360;27;20374;-61
2023/10/08 06:09:21;;;;;;;;;;;;;;;;;;5099264;28;19951;-61
2023/10/08 06:12:07;;;;;;;;;;;;;;;;;;5099891;28;19979;-61
2023/10/08 06:14:52;;;;;;;;;;;;;;;;;;5100295;28;19943;-61
2023/10/08 06:17:34;;;;;;;;;;;;;;;;;;5092280;28;19928;-61
2023/10/08 06:20:12;;;;;;;;;;;;;;;;;;5098011;28;20331;-61
2023/10/08 06:22:42;;;;;;;;;;;;;;;;;;5092730;28;19927;-61
2023/10/08 06:27:57;;;;;;;;;;;;;;;;;;5096064;28;19950;-60
2023/10/08 06:30:24;;;;;;;;;;;;;;;;;;5101203;28;19927;-61
2023/10/08 06:32:53;;;;;;;;;;;;;;;;;;5085374;28;20500;-61
2023/10/08 06:35:24;;;;;;;;;;;;;;;;;;5107175;27;19947;-60
2023/10/08 06:37:54;;;;;;;;;;;;;;;;;;5101837;28;20439;-61
2023/10/08 06:43:14;;;;;;;;;;;;;;;;;;5095746;28;19920;-61
2023/10/08 06:45:40;;;;;;;;;;;;;;;;;;5102518;27;19968;-61
2023/10/08 06:48:07;;;;;;;;;;;;;;;;;;5098945;27;19955;-61
2023/10/08 06:50:35;;;;;;;;;;;;;;;;;;5097462;27;19971;-60
2023/10/08 06:53:06;;;;;;;;;;;;;;;;;;5098913;28;20425;-60
2023/10/08 06:55:33;;;;;;;;;;;;;;;;;;5100428;27;19928;-61
2023/10/08 06:58:00;;;;;;;;;;;;;;;;;;5103849;27;19932;-61
2023/10/08 07:00:38;;;;;;;;;;;;;;;;;;5101114;27;19943;-61
2023/10/08 07:03:04;;;;;;;;;;;;;;;;;;5099368;28;19924;-61
2023/10/08 07:05:31;;;;;;;;;;;;;;;;;;5086474;28;20009;-61
2023/10/08 07:07:57;;;;;;;;;;;;;;;;;;5098912;28;20381;-59
2023/10/08 07:10:24;;;;;;;;;;;;;;;;;;5101535;27;19928;-60
2023/10/08 07:12:53;;;;;;;;;;;;;;;;;;5103645;27;19924;-59
2023/10/08 07:15:23;;;;;;;;;;;;;;;;;;5100028;27;20018;-59
2023/10/08 07:17:51;;;;;;;;;;;;;;;;;;5095628;27;20035;-59
2023/10/08 07:20:22;;;;;;;;;;;;;;;;;;5099889;27;19932;-59
2023/10/08 07:22:53;;;;;;;;;;;;;;;;;;5096713;27;20010;-61
2023/10/08 07:25:21;;;;;;;;;;;;;;;;;;5102875;27;19928;-59
2023/10/08 07:27:47;;;;;;;;;;;;;;;;;;5110558;27;19924;-59
2023/10/08 07:30:26;;;;;;;;;;;;;;;;;;5100277;28;19932;-59
2023/10/08 07:32:54;;;;;;;;;;;;;;;;;;5099118;27;19924;-60
2023/10/08 07:35:25;;;;;;;;;;;;;;;;;;5100911;27;19930;-60
2023/10/08 07:37:53;;;;;;;;;;;;;;;;;;5086278;28;20875;-59
2023/10/08 07:40:20;;;;;;;;;;;;;;;;;;5097689;28;19924;-59
2023/10/08 07:42:51;;;;;;;;;;;;;;;;;;5095517;28;19928;-59
2023/10/08 07:45:18;;;;;;;;;;;;;;;;;;5098566;27;19931;-59
2023/10/08 07:47:45;;;;;;;;;;;;;;;;;;5101032;28;19934;-61
2023/10/08 07:50:12;;;;;;;;;;;;;;;;;;5108850;27;19923;-59
2023/10/08 07:52:39;;;;;;;;;;;;;;;;;;5096226;28;19928;-58
2023/10/08 07:55:06;;;;;;;;;;;;;;;;;;5107192;27;19927;-61
2023/10/08 07:57:33;;;;;;;;;;;;;;;;;;5095898;27;19932;-61
2023/10/08 08:00:18;;;;;;;;;;;;;;;;;;5100703;28;19924;-61
2023/10/08 08:02:44;;;;;;;;;;;;;;;;;;5103240;27;20410;-61
2023/10/08 08:05:15;;;;;;;;;;;;;;;;;;5104539;27;20546;-58
2023/10/08 08:07:42;;;;;;;;;;;;;;;;;;5100590;28;19927;-62
2023/10/08 08:10:10;;;;;;;;;;;;;;;;;;5099105;28;20297;-60
2023/10/08 08:12:37;;;;;;;;;;;;;;;;;;5097798;28;19932;-59
2023/10/08 08:15:14;;;;;;;;;;;;;;;;;;5092270;28;20022;-59
2023/10/08 08:17:41;;;;;;;;;;;;;;;;;;5101821;28;19928;-59
2023/10/08 08:20:17;;;;;;;;;;;;;;;;;;5091878;28;20394;-61
2023/10/08 08:22:49;;;;;;;;;;;;;;;;;;5094170;28;19924;-58
2023/10/08 08:25:16;;;;;;;;;;;;;;;;;;5091601;28;19924;-61
2023/10/08 08:27:44;;;;;;;;;;;;;;;;;;5103363;28;20446;-59
2023/10/08 08:30:15;;;;;;;;;;;;;;;;;;5099409;28;20023;-61
2023/10/08 08:32:43;;;;;;;;;;;;;;;;;;5097904;28;19924;-59
2023/10/08 08:35:10;;;;;;;;;;;;;;;;;;5103879;28;19928;-61
2023/10/08 08:37:38;;;;;;;;;;;;;;;;;;5103627;28;20022;-61
2023/10/08 08:40:07;;;;;;;;;;;;;;;;;;5104993;28;19924;-60
2023/10/08 08:42:34;;;;;;;;;;;;;;;;;;5091915;28;19932;-61
2023/10/08 08:45:01;;;;;;;;;;;;;;;;;;5105676;28;19992;-61
2023/10/08 08:47:28;;;;;;;;;;;;;;;;;;5097203;28;20018;-60
2023/10/08 08:49:55;;;;;;;;;;;;;;;;;;5093849;28;19927;-61
2023/10/08 08:52:22;;;;;;;;;;;;;;;;;;5106052;28;19938;-59
2023/10/08 08:54:48;;;;;;;;;;;;;;;;;;5099525;28;19957;-59
2023/10/08 08:57:16;;;;;;;;;;;;;;;;;;5098024;28;19928;-60
2023/10/08 08:59:43;;;;;;;;;;;;;;;;;;5103100;28;20001;-59
2023/10/08 09:02:10;;;;;;;;;;;;;;;;;;5099631;28;19928;-61
2023/10/08 09:04:37;;;;;;;;;;;;;;;;;;5096413;28;19955;-59
2023/10/08 09:07:04;;;;;;;;;;;;;;;;;;5097923;28;19931;-61
2023/10/08 09:09:30;;;;;;;;;;;;;;;;;;5102799;28;19938;-61
2023/10/08 09:11:57;;;;;;;;;;;;;;;;;;5101721;28;20011;-61
2023/10/08 09:14:25;;;;;;;;;;;;;;;;;;5102149;28;19928;-61
2023/10/08 09:16:51;;;;;;;;;;;;;;;;;;5101536;28;19971;-61
2023/10/08 09:19:19;;;;;;;;;;;;;;;;;;5100088;28;19944;-61
2023/10/08 09:21:45;;;;;;;;;;;;;;;;;;5103676;27;20319;-60
2023/10/08 09:24:12;;;;;;;;;;;;;;;;;;5090222;28;19927;-61
2023/10/08 09:26:39;;;;;;;;;;;;;;;;;;5096115;27;19963;-61
2023/10/08 09:29:07;;;;;;;;;;;;;;;;;;5105402;27;19928;-61
2023/10/08 09:31:35;;;;;;;;;;;;;;;;;;5103868;27;20411;-60
2023/10/08 09:34:02;;;;;;;;;;;;;;;;;;5105868;27;20597;-59
2023/10/08 09:36:33;;;;;;;;;;;;;;;;;;5101942;27;19964;-61
2023/10/08 09:38:59;;;;;;;;;;;;;;;;;;5093651;28;19925;-59
2023/10/08 09:41:26;;;;;;;;;;;;;;;;;;5102944;28;19928;-59
2023/10/08 09:43:52;;;;;;;;;;;;;;;;;;5104033;27;19927;-59
2023/10/08 09:46:19;;;;;;;;;;;;;;;;;;5083818;28;19928;-61
2023/10/08 09:48:45;;;;;;;;;;;;;;;;;;5102673;27;19938;-61
2023/10/08 09:51:12;;;;;;;;;;;;;;;;;;5098819;27;20493;-61
2023/10/08 09:53:39;;;;;;;;;;;;;;;;;;5100884;27;19947;-61
2023/10/08 09:56:06;;;;;;;;;;;;;;;;;;5103448;27;19928;-61
2023/10/08 09:58:33;;;;;;;;;;;;;;;;;;5098732;28;19928;-61
2023/10/08 10:00:59;;;;;;;;;;;;;;;;;;5096823;27;20000;-61
2023/10/08 10:03:26;;;;;;;;;;;;;;;;;;5098169;27;20013;-60
2023/10/08 10:05:58;;;;;;;;;;;;;;;;;;5102016;27;19928;-61
2023/10/08 10:08:26;;;;;;;;;;;;;;;;;;5104867;28;20108;-60
2023/10/08 10:10:53;;;;;;;;;;;;;;;;;;5104292;28;20291;-61
2023/10/08 10:13:21;;;;;;;;;;;;;;;;;;5103644;27;19924;-60
2023/10/08 10:15:47;;;;;;;;;;;;;;;;;;5100473;28;19931;-60
2023/10/08 10:18:14;;;;;;;;;;;;;;;;;;5105642;27;19977;-60
2023/10/08 10:20:41;;;;;;;;;;;;;;;;;;5096900;28;19924;-60
2023/10/08 10:23:10;;;;;;;;;;;;;;;;;;5096466;27;19924;-60
2023/10/08 10:25:42;;;;;;;;;;;;;;;;;;5092174;28;19928;-60
2023/10/08 10:28:09;;;;;;;;;;;;;;;;;;5095394;28;19928;-60
2023/10/08 10:30:36;;;;;;;;;;;;;;;;;;5077108;28;19928;-61
2023/10/08 10:33:05;;;;;;;;;;;;;;;;;;5096253;27;19935;-61
2023/10/08 10:35:32;;;;;;;;;;;;;;;;;;5095128;27;19927;-61
2023/10/08 10:38:03;;;;;;;;;;;;;;;;;;5099288;27;20014;-60
2023/10/08 10:40:39;;;;;;;;;;;;;;;;;;5101247;27;19931;-59
2023/10/08 10:43:06;;;;;;;;;;;;;;;;;;5090674;28;19928;-59
2023/10/08 10:45:36;;;;;;;;;;;;;;;;;;5081375;28;20290;-59
2023/10/08 10:48:12;;;;;;;;;;;;;;;;;;5094042;28;19927;-59
2023/10/08 10:50:48;;;;;;;;;;;;;;;;;;5093357;27;19928;-61
2023/10/08 10:53:14;;;;;;;;;;;;;;;;;;5082617;28;19932;-59
2023/10/08 10:55:47;;;;;;;;;;;;;;;;;;5078166;27;20690;-59
2023/10/08 10:58:15;;;;;;;;;;;;;;;;;;5096841;27;19928;-59
2023/10/08 11:00:49;;;;;;;;;;;;;;;;;;5091827;27;19935;-62
2023/10/08 11:03:17;;;;;;;;;;;;;;;;;;5097765;28;19928;-62
2023/10/08 11:05:47;;;;;;;;;;;;;;;;;;5073777;28;20024;-61
2023/10/08 11:08:14;;;;;;;;;;;;;;;;;;5095047;28;19934;-62
2023/10/08 11:10:46;;;;;;;;;;;;;;;;;;5093662;28;19924;-58
2023/10/08 11:13:15;;;;;;;;;;;;;;;;;;5092250;28;19932;-59
2023/10/08 11:15:41;;;;;;;;;;;;;;;;;;5103649;28;20449;-60
2023/10/08 11:18:09;;;;;;;;;;;;;;;;;;5098541;28;19927;-59
2023/10/08 11:20:39;;;;;;;;;;;;;;;;;;5096574;28;19924;-59
2023/10/08 11:23:18;;;;;;;;;;;;;;;;;;5099552;28;20443;-59
2023/10/08 11:25:45;;;;;;;;;;;;;;;;;;5100426;28;20323;-59
2023/10/08 11:28:12;;;;;;;;;;;;;;;;;;5104184;27;20023;-58
2023/10/08 11:30:42;;;;;;;;;;;;;;;;;;5097015;27;20385;-59
2023/10/08 11:33:15;;;;;;;;;;;;;;;;;;5095895;27;20753;-59
2023/10/08 11:35:51;;;;;;;;;;;;;;;;;;5090574;28;20271;-58
2023/10/08 11:38:22;;;;;;;;;;;;;;;;;;5087441;28;20015;-58
2023/10/08 11:40:49;;;;;;;;;;;;;;;;;;5098079;27;19928;-58
2023/10/08 11:43:17;;;;;;;;;;;;;;;;;;5101068;27;19927;-58
2023/10/08 11:45:48;;;;;;;;;;;;;;;;;;5096991;28;19935;-58
2023/10/08 11:48:17;;;;;;;;;;;;;;;;;;5097781;28;19927;-59
2023/10/08 11:50:43;;;;;;;;;;;;;;;;;;5102728;27;19938;-58
2023/10/08 11:53:11;;;;;;;;;;;;;;;;;;5104708;28;20040;-58
2023/10/08 11:55:38;;;;;;;;;;;;;;;;;;5095607;28;19924;-58
2023/10/08 11:58:09;;;;;;;;;;;;;;;;;;5096896;28;19924;-59
2023/10/08 12:00:43;;;;;;;;;;;;;;;;;;5093591;28;19928;-58
2023/10/08 12:03:10;;;;;;;;;;;;;;;;;;5092872;27;20028;-60
2023/10/08 12:05:38;;;;;;;;;;;;;;;;;;5095832;28;20442;-58
2023/10/08 12:08:08;;;;;;;;;;;;;;;;;;5099153;28;20008;-59
2023/10/08 12:10:34;;;;;;;;;;;;;;;;;;5104517;28;19947;-60
2023/10/08 12:13:04;;;;;;;;;;;;;;;;;;5096053;28;19990;-58
2023/10/08 12:15:38;;;;;;;;;;;;;;;;;;5094544;28;19924;-59
2023/10/08 12:18:13;;;;;;;;;;;;;;;;;;5094751;28;19931;-60
2023/10/08 12:20:43;;;;;;;;;;;;;;;;;;5102863;28;19928;-60
2023/10/08 12:23:10;;;;;;;;;;;;;;;;;;5083115;28;19927;-61
2023/10/08 12:25:37;;;;;;;;;;;;;;;;;;5090298;28;19924;-59
2023/10/08 12:28:04;;;;;;;;;;;;;;;;;;5100721;28;19934;-60
2023/10/08 12:30:31;;;;;;;;;;;;;;;;;;5089577;28;20385;-59
2023/10/08 12:32:58;;;;;;;;;;;;;;;;;;5103078;28;20014;-61
2023/10/08 12:35:25;;;;;;;;;;;;;;;;;;5105750;28;19940;-59
2023/10/08 12:37:52;;;;;;;;;;;;;;;;;;5105450;28;19924;-62
2023/10/08 12:40:23;;;;;;;;;;;;;;;;;;5101902;28;19928;-60
2023/10/08 12:42:50;;;;;;;;;;;;;;;;;;5096892;28;19924;-60
2023/10/08 12:45:20;;;;;;;;;;;;;;;;;;5108925;28;20304;-61
2023/10/08 12:47:47;;;;;;;;;;;;;;;;;;5106888;27;20395;-60
2023/10/08 12:50:15;;;;;;;;;;;;;;;;;;5092253;28;19977;-60
2023/10/08 12:52:47;;;;;;;;;;;;;;;;;;5109294;27;19934;-58
2023/10/08 12:55:13;;;;;;;;;;;;;;;;;;5108357;27;19924;-60
2023/10/08 12:57:41;;;;;;;;;;;;;;;;;;5087744;28;19924;-60
2023/10/08 13:00:08;;;;;;;;;;;;;;;;;;5105168;27;20457;-60
2023/10/08 13:02:39;;;;;;;;;;;;;;;;;;5100998;28;19928;-60
2023/10/08 13:05:15;;;;;;;;;;;;;;;;;;5094843;27;19924;-60
2023/10/08 13:07:42;;;;;;;;;;;;;;;;;;5111589;27;19970;-61
2023/10/08 13:10:11;;;;;;;;;;;;;;;;;;5102388;27;19938;-60
2023/10/08 13:12:37;;;;;;;;;;;;;;;;;;5102309;28;19928;-59
2023/10/08 13:15:06;;;;;;;;;;;;;;;;;;5090275;27;19963;-59
2023/10/08 13:17:32;;;;;;;;;;;;;;;;;;5100154;27;19924;-59
2023/10/08 13:19:59;;;;;;;;;;;;;;;;;;5105852;27;20285;-59
2023/10/08 13:22:27;;;;;;;;;;;;;;;;;;5103142;27;19967;-60
2023/10/08 13:24:54;;;;;;;;;;;;;;;;;;5104671;28;20015;-59
2023/10/08 13:27:20;;;;;;;;;;;;;;;;;;5084567;28;20751;-58
2023/10/08 13:29:47;;;;;;;;;;;;;;;;;;5101201;28;20374;-59
2023/10/08 13:32:17;;;;;;;;;;;;;;;;;;5105636;28;19993;-59
2023/10/08 13:34:45;;;;;;;;;;;;;;;;;;5097392;28;19927;-60
2023/10/08 13:37:14;;;;;;;;;;;;;;;;;;5102762;28;19928;-59
2023/10/08 13:39:40;;;;;;;;;;;;;;;;;;5109477;27;19923;-59
2023/10/08 13:42:08;;;;;;;;;;;;;;;;;;5100393;27;20014;-59
2023/10/08 13:44:35;;;;;;;;;;;;;;;;;;5099849;28;20230;-59
2023/10/08 13:47:05;;;;;;;;;;;;;;;;;;5108074;27;20022;-59
2023/10/08 13:49:32;;;;;;;;;;;;;;;;;;5105375;28;19952;-59
2023/10/08 13:51:59;;;;;;;;;;;;;;;;;;5090328;28;19928;-59
2023/10/08 13:54:28;;;;;;;;;;;;;;;;;;5095661;27;19924;-59
2023/10/08 13:56:55;;;;;;;;;;;;;;;;;;5103640;27;19931;-59
2023/10/08 13:59:24;;;;;;;;;;;;;;;;;;5110490;27;19928;-60
2023/10/08 14:01:51;;;;;;;;;;;;;;;;;;5103193;28;19932;-59
2023/10/08 14:04:19;;;;;;;;;;;;;;;;;;5097393;27;19931;-60
2023/10/08 14:06:51;;;;;;;;;;;;;;;;;;5103185;27;20618;-60
2023/10/08 14:09:21;;;;;;;;;;;;;;;;;;5102068;28;19924;-59
2023/10/08 14:11:47;;;;;;;;;;;;;;;;;;5096028;27;20015;-59
2023/10/08 14:14:16;;;;;;;;;;;;;;;;;;5109021;27;19997;-59
2023/10/08 14:16:43;;;;;;;;;;;;;;;;;;5103198;27;20003;-59
2023/10/08 14:19:12;;;;;;;;;;;;;;;;;;5111389;27;19927;-60
2023/10/08 14:21:49;;;;;;;;;;;;;;;;;;5116546;27;20281;-60
2023/10/08 14:24:16;;;;;;;;;;;;;;;;;;5103442;27;19932;-59
2023/10/08 14:26:43;;;;;;;;;;;;;;;;;;5098598;28;20038;-60
2023/10/08 14:29:10;;;;;;;;;;;;;;;;;;5101923;27;19934;-59
2023/10/08 14:31:38;;;;;;;;;;;;;;;;;;5104125;27;20045;-59
2023/10/08 14:34:18;;;;;;;;;;;;;;;;;;5101681;27;19936;-59
2023/10/08 14:44:58;;;;;;;;;;;;;;;;;;5102166;27;20336;-59
2023/10/08 14:47:24;;;;;;;;;;;;;;;;;;5100869;27;20326;-60
2023/10/08 14:49:51;;;;;;;;;;;;;;;;;;5106715;27;19967;-59
2023/10/08 14:52:18;;;;;;;;;;;;;;;;;;5098385;28;19928;-59
2023/10/08 14:54:45;;;;;;;;;;;;;;;;;;5103396;28;19947;-59
2023/10/08 14:57:14;;;;;;;;;;;;;;;;;;5104948;28;20017;-60
2023/10/08 14:59:41;;;;;;;;;;;;;;;;;;5101665;28;20342;-59
2023/10/08 15:02:10;;;;;;;;;;;;;;;;;;5105005;27;19927;-59
2023/10/08 15:04:39;;;;;;;;;;;;;;;;;;5099643;28;19932;-59
2023/10/08 15:07:08;;;;;;;;;;;;;;;;;;5103595;28;20302;-59
2023/10/08 15:09:35;;;;;;;;;;;;;;;;;;5102985;28;19924;-60
2023/10/08 15:12:01;;;;;;;;;;;;;;;;;;5100012;28;20336;-59
2023/10/08 15:14:28;;;;;;;;;;;;;;;;;;5102336;28;19924;-59
2023/10/08 15:16:55;;;;;;;;;;;;;;;;;;5109339;27;20390;-60
2023/10/08 15:19:22;;;;;;;;;;;;;;;;;;5103922;27;20014;-59
2023/10/08 15:21:51;;;;;;;;;;;;;;;;;;5089423;28;20373;-59
2023/10/08 15:24:17;;;;;;;;;;;;;;;;;;5098106;28;19934;-60
2023/10/08 15:26:44;;;;;;;;;;;;;;;;;;5095802;28;19924;-59
2023/10/08 15:29:13;;;;;;;;;;;;;;;;;;5097538;28;20007;-59
2023/10/08 15:31:40;;;;;;;;;;;;;;;;;;5094837;28;20031;-60
2023/10/08 15:34:06;;;;;;;;;;;;;;;;;;5100482;27;20058;-59
2023/10/08 15:36:33;;;;;;;;;;;;;;;;;;5102121;27;20532;-59
2023/10/08 15:38:59;;;;;;;;;;;;;;;;;;5102448;28;19924;-60
2023/10/08 15:41:27;;;;;;;;;;;;;;;;;;5101147;28;20377;-59
2023/10/08 15:43:58;;;;;;;;;;;;;;;;;;5086879;28;20012;-60
2023/10/08 15:46:24;;;;;;;;;;;;;;;;;;5104956;28;19988;-59
2023/10/08 15:48:52;;;;;;;;;;;;;;;;;;5088664;28;19924;-59
2023/10/08 15:51:21;;;;;;;;;;;;;;;;;;5096623;28;19961;-59
2023/10/08 15:53:47;;;;;;;;;;;;;;;;;;5102869;27;20392;-59
2023/10/08 15:56:14;;;;;;;;;;;;;;;;;;5104850;27;19928;-59
2023/10/08 15:58:41;;;;;;;;;;;;;;;;;;5096100;27;19924;-59
2023/10/08 16:01:08;;;;;;;;;;;;;;;;;;5103367;28;20034;-59
2023/10/08 16:03:35;;;;;;;;;;;;;;;;;;5102230;28;19924;-59
2023/10/08 16:06:01;;;;;;;;;;;;;;;;;;5099965;27;19924;-59
2023/10/08 16:08:28;;;;;;;;;;;;;;;;;;5104700;27;19938;-59
2023/10/08 16:10:54;;;;;;;;;;;;;;;;;;5081416;28;19935;-59
2023/10/08 16:13:21;;;;;;;;;;;;;;;;;;5096223;28;19928;-59
2023/10/08 16:15:49;;;;;;;;;;;;;;;;;;5094044;28;20370;-59
2023/10/08 16:18:17;;;;;;;;;;;;;;;;;;5101291;28;20022;-59
2023/10/08 16:20:43;;;;;;;;;;;;;;;;;;5092833;27;19931;-59
2023/10/08 16:23:12;;;;;;;;;;;;;;;;;;5095043;28;20043;-59
2023/10/08 16:25:39;;;;;;;;;;;;;;;;;;5096701;28;19944;-59
2023/10/08 16:28:05;;;;;;;;;;;;;;;;;;5094100;28;19931;-59
2023/10/08 16:30:33;;;;;;;;;;;;;;;;;;5096783;28;19931;-60
2023/10/08 16:33:00;;;;;;;;;;;;;;;;;;5093524;28;19935;-59
2023/10/08 16:35:27;;;;;;;;;;;;;;;;;;5102780;28;20383;-59
2023/10/08 16:37:53;;;;;;;;;;;;;;;;;;5098519;28;19928;-59
2023/10/08 16:40:20;;;;;;;;;;;;;;;;;;5096686;28;20028;-59
2023/10/08 16:42:47;;;;;;;;;;;;;;;;;;5106236;28;19928;-59
2023/10/08 16:45:16;;;;;;;;;;;;;;;;;;5102280;28;20020;-58
2023/10/08 16:47:44;;;;;;;;;;;;;;;;;;5108276;28;20030;-59
2023/10/08 16:50:12;;;;;;;;;;;;;;;;;;5092842;28;19928;-59
2023/10/08 16:52:38;;;;;;;;;;;;;;;;;;5098124;28;20400;-59
2023/10/08 16:55:05;;;;;;;;;;;;;;;;;;5096069;28;20021;-61
2023/10/08 16:57:32;;;;;;;;;;;;;;;;;;5095464;28;20414;-59
2023/10/08 16:59:59;;;;;;;;;;;;;;;;;;5099557;28;19928;-59
2023/10/08 17:02:26;;;;;;;;;;;;;;;;;;5095413;28;20007;-59
2023/10/08 17:04:52;;;;;;;;;;;;;;;;;;5097014;28;20075;-60
2023/10/08 17:07:19;;;;;;;;;;;;;;;;;;5099055;28;20303;-60
2023/10/08 17:09:49;;;;;;;;;;;;;;;;;;5095699;28;19931;-60
2023/10/08 17:12:19;;;;;;;;;;;;;;;;;;5102317;28;19930;-60
2023/10/08 17:14:45;;;;;;;;;;;;;;;;;;5097114;28;20014;-60
2023/10/08 17:17:12;;;;;;;;;;;;;;;;;;5093331;28;19924;-60
2023/10/08 17:19:39;;;;;;;;;;;;;;;;;;5099144;28;20060;-60